Time;durP1;ratioP1;P1;durP2;ratioP2;P2;SDS_P1;SDS_P2;PMS_P1;PMS_P2;Temp;Humidity;BMP_temperature;BMP_pressure;BME280_temperature;BME280_humidity;BME280_pressure;Samples;Min_cycle;Max_cycle;Signal;HPM_P1;HPM_P2
2022/04/19 00:00:56;;;;;;;0.15;0.15;;;;;;;;;;5016102;28;20056;-70
2022/04/19 00:03:22;;;;;;;0.25;0.25;;;;;;;;;;5015507;28;20076;-69
2022/04/19 00:05:48;;;;;;;0.10;0.10;;;;;;;;;;5015452;28;20046;-70
2022/04/19 00:08:15;;;;;;;0.28;0.28;;;;;;;;;;5015630;28;20116;-69
2022/04/19 00:10:42;;;;;;;0.15;0.15;;;;;;;;;;5015892;28;20481;-69
2022/04/19 00:13:09;;;;;;;0.25;0.25;;;;;;;;;;5015037;28;20050;-69
2022/04/19 00:15:36;;;;;;;0.20;0.20;;;;;;;;;;5015524;28;20073;-70
2022/04/19 00:18:04;;;;;;;0.10;0.10;;;;;;;;;;5015442;28;20187;-70
2022/04/19 00:20:30;;;;;;;0.30;0.30;;;;;;;;;;5015738;28;20065;-69
2022/04/19 00:23:00;;;;;;;0.10;0.10;;;;;;;;;;5015669;28;20127;-69
2022/04/19 00:25:26;;;;;;;0.10;0.10;;;;;;;;;;5015381;28;20478;-69
2022/04/19 00:27:53;;;;;;;0.45;0.45;;;;;;;;;;5015435;28;20057;-70
2022/04/19 00:30:19;;;;;;;0.57;0.57;;;;;;;;;;5015920;28;20100;-69
2022/04/19 00:32:46;;;;;;;0.17;0.17;;;;;;;;;;5015508;28;20046;-69
2022/04/19 00:35:12;;;;;;;0.20;0.20;;;;;;;;;;5015813;28;20038;-69
2022/04/19 00:37:39;;;;;;;0.38;0.30;;;;;;;;;;5015155;28;20563;-69
2022/04/19 00:40:07;;;;;;;0.20;0.20;;;;;;;;;;5015192;28;20041;-69
2022/04/19 00:42:33;;;;;;;0.47;0.47;;;;;;;;;;5015003;28;20096;-69
2022/04/19 00:45:02;;;;;;;0.68;0.68;;;;;;;;;;5015661;28;20041;-69
2022/04/19 00:47:32;;;;;;;0.47;0.47;;;;;;;;;;5015347;28;20072;-69
2022/04/19 00:50:01;;;;;;;0.20;0.20;;;;;;;;;;5015253;28;20034;-69
2022/04/19 00:52:27;;;;;;;0.40;0.40;;;;;;;;;;5015171;28;20045;-69
2022/04/19 00:54:53;;;;;;;0.30;0.30;;;;;;;;;;5015012;28;20176;-69
2022/04/19 00:57:22;;;;;;;0.10;0.10;;;;;;;;;;5015431;28;20050;-69
2022/04/19 00:59:49;;;;;;;0.10;0.10;;;;;;;;;;5015411;28;20034;-69
2022/04/19 01:02:15;;;;;;;0.10;0.10;;;;;;;;;;5014792;28;20045;-69
2022/04/19 01:04:41;;;;;;;1.77;0.30;;;;;;;;;;5014769;28;20121;-69
2022/04/19 01:07:08;;;;;;;0.40;0.40;;;;;;;;;;5015567;28;20527;-69
2022/04/19 01:09:34;;;;;;;0.35;0.35;;;;;;;;;;5014831;28;20099;-69
2022/04/19 01:14:48;;;;;;;0.25;0.25;;;;;;;;;;5015116;28;20088;-69
2022/04/19 01:17:14;;;;;;;0.10;0.10;;;;;;;;;;5015461;28;20050;-69
2022/04/19 01:19:40;;;;;;;0.45;0.45;;;;;;;;;;5015000;28;20041;-69
2022/04/19 01:22:07;;;;;;;0.20;0.20;;;;;;;;;;5014680;28;20041;-69
2022/04/19 01:24:36;;;;;;;0.15;0.15;;;;;;;;;;5014880;28;20048;-69
2022/04/19 01:27:03;;;;;;;0.28;0.28;;;;;;;;;;5014217;28;20037;-70
2022/04/19 01:29:30;;;;;;;0.57;0.45;;;;;;;;;;4997930;28;20172;-69
2022/04/19 01:31:56;;;;;;;0.45;0.45;;;;;;;;;;5015086;28;20050;-69
2022/04/19 01:34:22;;;;;;;0.52;0.52;;;;;;;;;;5014687;28;20041;-69
2022/04/19 01:36:48;;;;;;;0.20;0.20;;;;;;;;;;5015195;28;20077;-69
2022/04/19 01:39:14;;;;;;;0.10;0.10;;;;;;;;;;5015058;28;20125;-69
2022/04/19 01:41:41;;;;;;;0.47;0.47;;;;;;;;;;5014631;28;20131;-69
2022/04/19 01:44:08;;;;;;;0.40;0.40;;;;;;;;;;5015010;28;20045;-69
2022/04/19 01:46:34;;;;;;;0.70;0.70;;;;;;;;;;5015057;28;20050;-69
2022/04/19 01:49:06;;;;;;;0.20;0.20;;;;;;;;;;5015004;28;20485;-69
2022/04/19 01:51:32;;;;;;;0.43;0.43;;;;;;;;;;5014475;28;20550;-69
2022/04/19 01:53:58;;;;;;;0.57;0.47;;;;;;;;;;5014599;28;20045;-69
2022/04/19 01:56:24;;;;;;;0.57;0.30;;;;;;;;;;5014454;28;20037;-71
2022/04/19 01:58:50;;;;;;;0.20;0.20;;;;;;;;;;5014330;28;20053;-69
2022/04/19 02:01:16;;;;;;;0.20;0.20;;;;;;;;;;5014878;28;20038;-69
2022/04/19 02:03:43;;;;;;;0.10;0.10;;;;;;;;;;5014576;28;20045;-69
2022/04/19 02:06:10;;;;;;;0.10;0.10;;;;;;;;;;5014519;28;20038;-69
2022/04/19 02:08:37;;;;;;;0.20;0.20;;;;;;;;;;5014226;28;20167;-69
2022/04/19 02:11:03;;;;;;;0.10;0.10;;;;;;;;;;5014148;28;20041;-69
2022/04/19 02:13:30;;;;;;;0.15;0.15;;;;;;;;;;5012598;28;20053;-69
2022/04/19 02:15:58;;;;;;;2.92;0.45;;;;;;;;;;5015688;28;20038;-69
2022/04/19 02:18:24;;;;;;;0.10;0.10;;;;;;;;;;5016763;28;20060;-69
2022/04/19 02:20:51;;;;;;;2.10;0.82;;;;;;;;;;5017687;28;20477;-69
2022/04/19 02:23:17;;;;;;;0.10;0.10;;;;;;;;;;5017978;28;20041;-69
2022/04/19 02:25:43;;;;;;;4.40;0.95;;;;;;;;;;5018482;28;20033;-69
2022/04/19 02:28:10;;;;;;;0.10;0.10;;;;;;;;;;5017516;28;20062;-69
2022/04/19 02:30:36;;;;;;;0.10;0.10;;;;;;;;;;5017586;28;20041;-69
2022/04/19 02:33:03;;;;;;;0.20;0.20;;;;;;;;;;5017435;28;20056;-69
2022/04/19 02:35:31;;;;;;;0.20;0.20;;;;;;;;;;5017766;28;20065;-69
2022/04/19 02:37:59;;;;;;;0.10;0.10;;;;;;;;;;5017883;28;20046;-69
2022/04/19 02:40:26;;;;;;;0.30;0.30;;;;;;;;;;5017421;28;20034;-70
2022/04/19 02:42:56;;;;;;;0.22;0.20;;;;;;;;;;5017190;28;20046;-69
2022/04/19 02:45:23;;;;;;;0.68;0.43;;;;;;;;;;5017332;28;20100;-69
2022/04/19 02:47:51;;;;;;;0.45;0.45;;;;;;;;;;5016885;28;20125;-69
2022/04/19 02:50:17;;;;;;;0.20;0.20;;;;;;;;;;5017920;28;20029;-69
2022/04/19 02:52:44;;;;;;;1.35;0.40;;;;;;;;;;5017235;28;20547;-69
2022/04/19 02:55:10;;;;;;;0.32;0.32;;;;;;;;;;5017335;28;20462;-69
2022/04/19 02:57:37;;;;;;;0.20;0.20;;;;;;;;;;5017490;28;20045;-70
2022/04/19 03:00:03;;;;;;;0.20;0.20;;;;;;;;;;5017339;28;20030;-69
2022/04/19 03:02:29;;;;;;;0.10;0.10;;;;;;;;;;5016985;28;20037;-69
2022/04/19 03:04:55;;;;;;;0.10;0.10;;;;;;;;;;5017352;28;20497;-69
2022/04/19 03:07:22;;;;;;;0.25;0.25;;;;;;;;;;5017294;28;20042;-69
2022/04/19 03:09:48;;;;;;;0.20;0.20;;;;;;;;;;5016851;28;20038;-70
2022/04/19 03:12:15;;;;;;;1.65;0.50;;;;;;;;;;5016611;28;20049;-69
2022/04/19 03:14:41;;;;;;;2.85;0.40;;;;;;;;;;5016891;28;20056;-70
2022/04/19 03:17:08;;;;;;;0.13;0.13;;;;;;;;;;5017444;28;20050;-69
2022/04/19 03:19:34;;;;;;;0.10;0.10;;;;;;;;;;5016655;28;20068;-69
2022/04/19 03:22:00;;;;;;;0.10;0.10;;;;;;;;;;5016622;28;20045;-69
2022/04/19 03:29:56;;;;;;;0.25;0.25;;;;;;;;;;5015969;28;20044;-69
2022/04/19 03:32:23;;;;;;;0.25;0.17;;;;;;;;;;5016044;28;20037;-69
2022/04/19 03:34:50;;;;;;;0.40;0.40;;;;;;;;;;5016721;28;20433;-69
2022/04/19 03:37:17;;;;;;;0.38;0.38;;;;;;;;;;5016587;28;20096;-69
2022/04/19 03:39:44;;;;;;;0.20;0.20;;;;;;;;;;5016298;28;20046;-69
2022/04/19 03:42:10;;;;;;;0.15;0.15;;;;;;;;;;5015760;28;20073;-69
2022/04/19 03:44:36;;;;;;;0.20;0.20;;;;;;;;;;5016141;28;20053;-69
2022/04/19 03:47:09;;;;;;;0.10;0.10;;;;;;;;;;5016616;28;20123;-69
2022/04/19 03:49:39;;;;;;;0.40;0.40;;;;;;;;;;5016700;28;20054;-69
2022/04/19 03:52:05;;;;;;;0.10;0.10;;;;;;;;;;5016513;28;20038;-69
2022/04/19 03:54:34;;;;;;;0.52;0.30;;;;;;;;;;5015915;28;20133;-69
2022/04/19 03:57:00;;;;;;;0.20;0.20;;;;;;;;;;5015126;28;20061;-69
2022/04/19 03:59:27;;;;;;;0.40;0.40;;;;;;;;;;5015565;28;20091;-69
2022/04/19 04:01:53;;;;;;;0.20;0.20;;;;;;;;;;5015606;28;20100;-69
2022/04/19 04:04:20;;;;;;;0.10;0.10;;;;;;;;;;5015332;28;20087;-69
2022/04/19 04:06:46;;;;;;;0.40;0.40;;;;;;;;;;5015564;28;20042;-70
2022/04/19 04:09:12;;;;;;;0.63;0.63;;;;;;;;;;5015335;28;20037;-69
2022/04/19 04:11:38;;;;;;;0.10;0.10;;;;;;;;;;5014950;28;20555;-69
2022/04/19 04:14:04;;;;;;;0.28;0.17;;;;;;;;;;5014722;28;20041;-70
2022/04/19 04:16:31;;;;;;;0.10;0.10;;;;;;;;;;5015446;28;20058;-69
2022/04/19 04:18:57;;;;;;;0.30;0.30;;;;;;;;;;5015279;28;20045;-69
2022/04/19 04:21:23;;;;;;;0.22;0.22;;;;;;;;;;5015509;28;20077;-69
2022/04/19 04:23:49;;;;;;;0.10;0.10;;;;;;;;;;5015177;28;20479;-69
2022/04/19 04:26:15;;;;;;;0.30;0.22;;;;;;;;;;5015208;28;20041;-69
2022/04/19 04:28:41;;;;;;;0.20;0.20;;;;;;;;;;5014868;28;20595;-69
2022/04/19 04:31:08;;;;;;;0.15;0.15;;;;;;;;;;5014197;28;20030;-70
2022/04/19 04:33:34;;;;;;;4.03;0.20;;;;;;;;;;5014970;28;20129;-71
2022/04/19 04:36:00;;;;;;;0.25;0.25;;;;;;;;;;5014617;28;20042;-73
2022/04/19 04:38:26;;;;;;;0.40;0.40;;;;;;;;;;5014738;28;20079;-69
2022/04/19 04:40:52;;;;;;;0.40;0.40;;;;;;;;;;5014417;28;20044;-69
2022/04/19 04:43:18;;;;;;;1.10;0.85;;;;;;;;;;5014750;28;20052;-69
2022/04/19 04:45:44;;;;;;;0.10;0.10;;;;;;;;;;5015143;28;20481;-69
2022/04/19 04:50:55;;;;;;;0.43;0.35;;;;;;;;;;5014603;28;20088;-69
2022/04/19 04:53:22;;;;;;;0.32;0.32;;;;;;;;;;5015085;28;20077;-69
2022/04/19 04:55:48;;;;;;;0.75;0.65;;;;;;;;;;5014587;28;20046;-69
2022/04/19 04:58:14;;;;;;;0.10;0.10;;;;;;;;;;5014548;28;20108;-69
2022/04/19 05:00:40;;;;;;;0.40;0.40;;;;;;;;;;5014626;28;20563;-69
2022/04/19 05:03:07;;;;;;;0.98;0.55;;;;;;;;;;5014879;28;20138;-69
2022/04/19 05:05:33;;;;;;;0.20;0.20;;;;;;;;;;5014463;28;20033;-69
2022/04/19 05:08:00;;;;;;;2.67;0.47;;;;;;;;;;5014983;28;20046;-69
2022/04/19 05:10:26;;;;;;;0.10;0.10;;;;;;;;;;5014512;28;20092;-68
2022/04/19 05:12:52;;;;;;;0.28;0.28;;;;;;;;;;5014738;28;20041;-69
2022/04/19 05:15:19;;;;;;;0.22;0.22;;;;;;;;;;5014954;28;20041;-69
2022/04/19 05:17:46;;;;;;;0.40;0.40;;;;;;;;;;5014809;28;20046;-69
2022/04/19 05:20:12;;;;;;;0.35;0.35;;;;;;;;;;5014342;28;20030;-69
2022/04/19 05:22:38;;;;;;;0.10;0.10;;;;;;;;;;5014829;28;20042;-68
2022/04/19 05:25:04;;;;;;;0.73;0.32;;;;;;;;;;5014938;28;20034;-69
2022/04/19 05:27:30;;;;;;;0.82;0.55;;;;;;;;;;5014511;28;20088;-69
2022/04/19 05:29:57;;;;;;;0.20;0.20;;;;;;;;;;5015256;28;20049;-69
2022/04/19 05:32:24;;;;;;;0.47;0.47;;;;;;;;;;5014984;28;20125;-69
2022/04/19 05:34:50;;;;;;;0.50;0.50;;;;;;;;;;5014978;28;20156;-69
2022/04/19 05:37:17;;;;;;;0.30;0.30;;;;;;;;;;5015294;28;20100;-69
2022/04/19 05:39:43;;;;;;;0.30;0.30;;;;;;;;;;5014848;28;20065;-69
2022/04/19 05:42:09;;;;;;;0.15;0.15;;;;;;;;;;5014774;28;20152;-69
2022/04/19 05:44:35;;;;;;;0.20;0.20;;;;;;;;;;5014799;28;20052;-69
2022/04/19 05:47:01;;;;;;;0.30;0.30;;;;;;;;;;5014972;28;20051;-68
2022/04/19 05:49:27;;;;;;;0.52;0.40;;;;;;;;;;5015993;28;20038;-68
2022/04/19 05:51:54;;;;;;;0.65;0.45;;;;;;;;;;5018825;28;20046;-68
2022/04/19 05:54:20;;;;;;;0.45;0.45;;;;;;;;;;5018789;28;20041;-68
2022/04/19 05:56:46;;;;;;;0.20;0.20;;;;;;;;;;5018836;28;20084;-69
2022/04/19 05:59:12;;;;;;;0.40;0.40;;;;;;;;;;5018187;28;20041;-68
2022/04/19 06:07:07;;;;;;;0.20;0.20;;;;;;;;;;5017776;28;20048;-69
2022/04/19 06:09:34;;;;;;;0.30;0.30;;;;;;;;;;5019722;28;20057;-69
2022/04/19 06:12:00;;;;;;;0.20;0.20;;;;;;;;;;5023518;28;20065;-66
2022/04/19 06:14:27;;;;;;;0.10;0.10;;;;;;;;;;5027185;28;20144;-69
2022/04/19 06:16:53;;;;;;;0.20;0.20;;;;;;;;;;5037260;28;20163;-69
2022/04/19 06:19:19;;;;;;;0.30;0.30;;;;;;;;;;5038122;28;20179;-69
2022/04/19 06:21:45;;;;;;;0.50;0.50;;;;;;;;;;5023283;28;20034;-69
2022/04/19 06:24:12;;;;;;;0.25;0.25;;;;;;;;;;5018515;28;20052;-69
2022/04/19 06:26:39;;;;;;;0.85;0.65;;;;;;;;;;5017584;28;20504;-69
2022/04/19 06:29:06;;;;;;;0.10;0.10;;;;;;;;;;5017915;28;20058;-69
2022/04/19 06:31:32;;;;;;;0.20;0.20;;;;;;;;;;5017890;28;20042;-69
2022/04/19 06:33:58;;;;;;;0.28;0.28;;;;;;;;;;5018313;28;20046;-69
2022/04/19 06:36:25;;;;;;;0.45;0.45;;;;;;;;;;5017585;28;20056;-69
2022/04/19 06:38:51;;;;;;;0.20;0.20;;;;;;;;;;5017445;28;20046;-69
2022/04/19 06:41:17;;;;;;;0.20;0.20;;;;;;;;;;5017093;28;20096;-69
2022/04/19 06:43:43;;;;;;;0.45;0.45;;;;;;;;;;5017622;28;20079;-69
2022/04/19 06:46:09;;;;;;;0.20;0.20;;;;;;;;;;5020857;28;20064;-68
2022/04/19 06:48:36;;;;;;;0.13;0.13;;;;;;;;;;5037166;28;20049;-69
2022/04/19 06:51:02;;;;;;;0.10;0.10;;;;;;;;;;5037164;28;20476;-68
2022/04/19 06:53:30;;;;;;;0.30;0.30;;;;;;;;;;5035118;28;20087;-68
2022/04/19 06:55:58;;;;;;;0.10;0.10;;;;;;;;;;5036923;28;20045;-68
2022/04/19 06:58:25;;;;;;;0.10;0.10;;;;;;;;;;5036754;28;20480;-69
2022/04/19 07:00:51;;;;;;;0.20;0.20;;;;;;;;;;5036392;28;20488;-68
2022/04/19 07:03:18;;;;;;;1.75;0.68;;;;;;;;;;5016862;28;20046;-69
2022/04/19 07:05:44;;;;;;;0.40;0.40;;;;;;;;;;5017116;28;20489;-68
2022/04/19 07:08:11;;;;;;;0.43;0.43;;;;;;;;;;5018900;28;20041;-69
2022/04/19 07:10:38;;;;;;;0.35;0.35;;;;;;;;;;5017112;28;20480;-68
2022/04/19 07:13:04;;;;;;;0.40;0.40;;;;;;;;;;5016833;28;20053;-68
2022/04/19 07:15:30;;;;;;;0.10;0.10;;;;;;;;;;5016689;28;20041;-68
2022/04/19 07:17:56;;;;;;;0.32;0.32;;;;;;;;;;5017339;28;20389;-68
2022/04/19 07:28:36;;;;;;;0.25;0.25;;;;;;;;;;5016309;28;20069;-69
2022/04/19 07:31:06;;;;;;;0.40;0.40;;;;;;;;;;5030158;28;20064;-69
2022/04/19 07:33:37;;;;;;;0.47;0.47;;;;;;;;;;5027951;28;20050;-69
2022/04/19 07:36:03;;;;;;;0.40;0.40;;;;;;;;;;5017970;28;20196;-69
2022/04/19 07:38:29;;;;;;;0.95;0.35;;;;;;;;;;5016281;28;20136;-69
2022/04/19 07:40:55;;;;;;;0.63;0.63;;;;;;;;;;5015910;28;20045;-69
2022/04/19 07:43:21;;;;;;;1.98;0.63;;;;;;;;;;5016188;28;20050;-69
2022/04/19 07:45:48;;;;;;;0.22;0.22;;;;;;;;;;5016432;28;20111;-69
2022/04/19 07:48:14;;;;;;;0.47;0.47;;;;;;;;;;5015505;28;20112;-69
2022/04/19 07:50:40;;;;;;;2.60;0.65;;;;;;;;;;5016641;28;20477;-69
2022/04/19 07:53:06;;;;;;;0.20;0.20;;;;;;;;;;5015951;28;20132;-69
2022/04/19 07:55:32;;;;;;;1.30;1.00;;;;;;;;;;5016183;28;20038;-69
2022/04/19 07:57:58;;;;;;;0.50;0.50;;;;;;;;;;5015790;28;20048;-69
2022/04/19 08:00:27;;;;;;;0.28;0.28;;;;;;;;;;5015942;28;20038;-69
2022/04/19 08:02:55;;;;;;;1.17;0.40;;;;;;;;;;5015778;28;20042;-69
2022/04/19 08:05:21;;;;;;;0.35;0.35;;;;;;;;;;5015736;28;20034;-69
2022/04/19 08:07:50;;;;;;;0.38;0.38;;;;;;;;;;5016076;28;20037;-69
2022/04/19 08:10:20;;;;;;;0.20;0.20;;;;;;;;;;5015757;28;20046;-69
2022/04/19 08:12:46;;;;;;;0.60;0.55;;;;;;;;;;5014931;28;20497;-69
2022/04/19 08:15:13;;;;;;;0.17;0.17;;;;;;;;;;5015397;28;20384;-69
2022/04/19 08:17:39;;;;;;;0.90;0.60;;;;;;;;;;5015951;28;20050;-69
2022/04/19 08:20:06;;;;;;;0.10;0.10;;;;;;;;;;5015308;28;20187;-69
2022/04/19 08:22:32;;;;;;;0.70;0.63;;;;;;;;;;5014840;28;20044;-69
2022/04/19 08:25:00;;;;;;;0.43;0.43;;;;;;;;;;5016049;28;20092;-69
2022/04/19 08:27:26;;;;;;;0.20;0.20;;;;;;;;;;5001300;28;20061;-69
2022/04/19 08:29:52;;;;;;;0.17;0.17;;;;;;;;;;4995520;28;20066;-69
2022/04/19 08:32:18;;;;;;;0.10;0.10;;;;;;;;;;4995197;28;20073;-69
2022/04/19 08:34:45;;;;;;;0.32;0.32;;;;;;;;;;4994381;28;20117;-69
2022/04/19 08:37:11;;;;;;;0.50;0.50;;;;;;;;;;4994928;28;20054;-69
2022/04/19 08:39:37;;;;;;;0.55;0.55;;;;;;;;;;4994888;28;20046;-69
2022/04/19 08:42:07;;;;;;;0.35;0.35;;;;;;;;;;4995444;28;20046;-69
2022/04/19 08:44:36;;;;;;;1.85;1.13;;;;;;;;;;4995320;28;20125;-69
2022/04/19 08:47:04;;;;;;;0.50;0.50;;;;;;;;;;4995948;28;20058;-69
2022/04/19 08:49:31;;;;;;;0.52;0.52;;;;;;;;;;4995490;28;20034;-69
2022/04/19 08:51:57;;;;;;;0.60;0.50;;;;;;;;;;4995359;28;20038;-69
2022/04/19 08:59:54;;;;;;;0.30;0.30;;;;;;;;;;4994870;28;20474;-69
2022/04/19 09:02:22;;;;;;;0.50;0.50;;;;;;;;;;4995035;28;20031;-69
2022/04/19 09:04:50;;;;;;;1.35;0.65;;;;;;;;;;4994906;28;20401;-69
2022/04/19 09:07:20;;;;;;;0.55;0.25;;;;;;;;;;4995050;28;20049;-69
2022/04/19 09:09:59;;;;;;;0.85;0.52;;;;;;;;;;4994912;28;20100;-69
2022/04/19 09:12:26;;;;;;;0.28;0.28;;;;;;;;;;4994989;28;20065;-69
2022/04/19 09:14:55;;;;;;;0.45;0.45;;;;;;;;;;4995073;28;20046;-69
2022/04/19 09:17:30;;;;;;;0.40;0.40;;;;;;;;;;4995467;28;20050;-69
2022/04/19 09:20:08;;;;;;;0.68;0.68;;;;;;;;;;4995443;28;20529;-69
2022/04/19 09:22:34;;;;;;;0.40;0.40;;;;;;;;;;4994859;28;20482;-69
2022/04/19 09:25:14;;;;;;;0.32;0.32;;;;;;;;;;4996986;28;20481;-69
2022/04/19 09:27:40;;;;;;;0.60;0.50;;;;;;;;;;4998508;28;20062;-69
2022/04/19 09:30:19;;;;;;;0.22;0.22;;;;;;;;;;4998833;28;20052;-69
2022/04/19 09:33:00;;;;;;;0.80;0.80;;;;;;;;;;4998978;28;20046;-69
2022/04/19 09:35:30;;;;;;;0.20;0.20;;;;;;;;;;4999038;28;20053;-69
2022/04/19 09:37:57;;;;;;;0.10;0.10;;;;;;;;;;4999271;28;20050;-69
2022/04/19 09:40:34;;;;;;;0.25;0.25;;;;;;;;;;4998971;28;20046;-69
2022/04/19 09:43:10;;;;;;;0.50;0.50;;;;;;;;;;4998369;28;20047;-69
2022/04/19 09:45:54;;;;;;;0.30;0.30;;;;;;;;;;4998459;28;20394;-69
2022/04/19 09:48:30;;;;;;;0.80;0.80;;;;;;;;;;4998190;28;20118;-69
2022/04/19 09:51:04;;;;;;;0.10;0.10;;;;;;;;;;4999076;28;20054;-69
2022/04/19 09:53:31;;;;;;;0.10;0.10;;;;;;;;;;4998705;28;20042;-69
2022/04/19 09:55:59;;;;;;;0.65;0.65;;;;;;;;;;4998555;28;20034;-69
2022/04/19 09:58:26;;;;;;;0.22;0.22;;;;;;;;;;4998572;28;20054;-69
2022/04/19 10:00:52;;;;;;;0.20;0.20;;;;;;;;;;4998586;28;20089;-69
2022/04/19 10:08:39;;;;;;;0.82;0.82;;;;;;;;;;4998346;28;20412;-69
2022/04/19 10:11:05;;;;;;;0.30;0.30;;;;;;;;;;4998427;28;20042;-69
2022/04/19 10:13:35;;;;;;;0.20;0.20;;;;;;;;;;4998177;28;20085;-69
2022/04/19 10:16:02;;;;;;;0.52;0.50;;;;;;;;;;4998324;28;20042;-69
2022/04/19 10:18:28;;;;;;;0.77;0.77;;;;;;;;;;4998241;28;20389;-69
2022/04/19 10:20:54;;;;;;;1.13;0.95;;;;;;;;;;4998487;28;20041;-70
2022/04/19 10:23:21;;;;;;;0.20;0.20;;;;;;;;;;4997868;28;20468;-69
2022/04/19 10:25:48;;;;;;;1.02;1.00;;;;;;;;;;4998131;28;20038;-69
2022/04/19 10:28:15;;;;;;;0.60;0.47;;;;;;;;;;4997976;28;20054;-69
2022/04/19 10:30:52;;;;;;;0.30;0.30;;;;;;;;;;4998523;28;20169;-69
2022/04/19 10:33:37;;;;;;;0.52;0.52;;;;;;;;;;4998359;28;20054;-69
2022/04/19 10:36:30;;;;;;;0.85;0.85;;;;;;;;;;4993719;28;20489;-69
2022/04/19 10:39:08;;;;;;;0.22;0.22;;;;;;;;;;4995011;28;20045;-69
2022/04/19 10:41:52;;;;;;;1.35;1.15;;;;;;;;;;4997179;28;20056;-69
2022/04/19 10:44:23;;;;;;;0.30;0.30;;;;;;;;;;4997846;28;20113;-68
2022/04/19 10:47:11;;;;;;;0.32;0.32;;;;;;;;;;4997185;28;20042;-69
2022/04/19 10:49:56;;;;;;;0.45;0.45;;;;;;;;;;4997052;28;20038;-69
2022/04/19 10:52:40;;;;;;;0.52;0.52;;;;;;;;;;4997043;28;20053;-68
2022/04/19 10:55:19;;;;;;;0.57;0.57;;;;;;;;;;4997041;28;20050;-69
2022/04/19 11:00:46;;;;;;;0.10;0.10;;;;;;;;;;4996331;28;20117;-69
2022/04/19 11:03:13;;;;;;;0.20;0.20;;;;;;;;;;4995721;28;20132;-69
2022/04/19 11:05:44;;;;;;;0.60;0.60;;;;;;;;;;4996809;28;20034;-68
2022/04/19 11:08:22;;;;;;;0.10;0.10;;;;;;;;;;4996719;28;20083;-69
2022/04/19 11:10:49;;;;;;;0.52;0.32;;;;;;;;;;4995286;28;20042;-69
2022/04/19 11:13:15;;;;;;;0.10;0.10;;;;;;;;;;5011600;28;20049;-69
2022/04/19 11:15:42;;;;;;;1.23;1.13;;;;;;;;;;5017341;28;20042;-68
2022/04/19 11:18:24;;;;;;;0.40;0.40;;;;;;;;;;5016080;28;20042;-68
2022/04/19 11:20:52;;;;;;;0.98;0.65;;;;;;;;;;5017277;28;20044;-69
2022/04/19 11:23:19;;;;;;;0.15;0.15;;;;;;;;;;5016236;28;20041;-69
2022/04/19 11:25:45;;;;;;;0.47;0.47;;;;;;;;;;5016499;28;20076;-69
2022/04/19 11:28:12;;;;;;;2.58;1.17;;;;;;;;;;5016210;28;20057;-69
2022/04/19 11:30:58;;;;;;;0.40;0.40;;;;;;;;;;5016685;28;20033;-69
2022/04/19 11:33:25;;;;;;;1.00;0.50;;;;;;;;;;5015080;28;20050;-69
2022/04/19 11:36:00;;;;;;;0.43;0.43;;;;;;;;;;5017005;28;20041;-68
2022/04/19 11:38:27;;;;;;;2.10;0.55;;;;;;;;;;5016729;28;20060;-68
2022/04/19 11:49:09;;;;;;;0.88;0.45;;;;;;;;;;5015811;28;20397;-69
2022/04/19 11:51:37;;;;;;;1.55;0.77;;;;;;;;;;5016510;28;20481;-69
2022/04/19 11:54:04;;;;;;;0.20;0.20;;;;;;;;;;5015899;28;20095;-69
2022/04/19 11:56:33;;;;;;;3.03;0.45;;;;;;;;;;5016568;28;20058;-68
2022/04/19 11:59:00;;;;;;;0.30;0.30;;;;;;;;;;5016488;28;20099;-67
2022/04/19 12:01:27;;;;;;;0.65;0.65;;;;;;;;;;4996501;28;20050;-67
2022/04/19 12:03:53;;;;;;;0.88;0.88;;;;;;;;;;4995571;28;20092;-67
2022/04/19 12:06:21;;;;;;;0.10;0.10;;;;;;;;;;4996211;28;20038;-67
2022/04/19 12:08:51;;;;;;;0.20;0.20;;;;;;;;;;4995897;28;20042;-67
2022/04/19 12:11:19;;;;;;;0.10;0.10;;;;;;;;;;4995184;28;20046;-67
2022/04/19 12:13:49;;;;;;;0.70;0.70;;;;;;;;;;4995568;28;20038;-67
2022/04/19 12:16:33;;;;;;;0.55;0.55;;;;;;;;;;4994988;28;20123;-67
2022/04/19 12:19:00;;;;;;;0.43;0.43;;;;;;;;;;4994881;28;20161;-67
2022/04/19 12:21:40;;;;;;;1.10;0.22;;;;;;;;;;4995826;28;20046;-67
2022/04/19 12:24:20;;;;;;;4.40;0.95;;;;;;;;;;4995342;28;20073;-67
2022/04/19 12:26:49;;;;;;;0.20;0.20;;;;;;;;;;4995793;28;20046;-67
2022/04/19 12:29:16;;;;;;;0.20;0.20;;;;;;;;;;4995461;28;20064;-67
2022/04/19 12:31:51;;;;;;;0.20;0.20;;;;;;;;;;4994097;28;20040;-67
2022/04/19 12:34:17;;;;;;;0.43;0.43;;;;;;;;;;4995579;28;20109;-67
2022/04/19 12:36:50;;;;;;;0.30;0.30;;;;;;;;;;4988617;28;20060;-67
2022/04/19 12:39:21;;;;;;;0.55;0.55;;;;;;;;;;5014138;28;20087;-67
2022/04/19 12:41:48;;;;;;;1.17;1.08;;;;;;;;;;5014482;28;20489;-67
2022/04/19 12:44:18;;;;;;;0.40;0.40;;;;;;;;;;5009529;28;20038;-67
2022/04/19 12:46:45;;;;;;;0.32;0.32;;;;;;;;;;5008149;28;20432;-66
2022/04/19 12:49:25;;;;;;;0.13;0.13;;;;;;;;;;5012350;28;20492;-67
2022/04/19 12:52:07;;;;;;;0.50;0.50;;;;;;;;;;5013761;28;20124;-67
2022/04/19 12:54:35;;;;;;;0.30;0.30;;;;;;;;;;5014449;28;20045;-67
2022/04/19 12:59:47;;;;;;;0.63;0.63;;;;;;;;;;5012372;28;20088;-68
2022/04/19 13:02:15;;;;;;;0.50;0.50;;;;;;;;;;5014314;28;20100;-67
2022/04/19 13:04:41;;;;;;;0.43;0.43;;;;;;;;;;5013846;28;20034;-67
2022/04/19 13:12:37;;;;;;;0.47;0.47;;;;;;;;;;5014122;28;20064;-68
2022/04/19 13:15:05;;;;;;;2.63;0.30;;;;;;;;;;5014218;28;20042;-68
2022/04/19 13:17:32;;;;;;;0.60;0.60;;;;;;;;;;5012663;28;20096;-69
2022/04/19 13:19:59;;;;;;;0.57;0.50;;;;;;;;;;5014751;28;20029;-68
2022/04/19 13:22:25;;;;;;;0.28;0.28;;;;;;;;;;5014417;28;20542;-68
2022/04/19 13:24:51;;;;;;;0.40;0.40;;;;;;;;;;5014275;28;20042;-68
2022/04/19 13:27:18;;;;;;;0.40;0.40;;;;;;;;;;5013724;28;20575;-68
2022/04/19 13:29:44;;;;;;;0.47;0.47;;;;;;;;;;5014509;28;20132;-68
2022/04/19 13:32:11;;;;;;;0.57;0.57;;;;;;;;;;5014258;28;20505;-68
2022/04/19 13:34:38;;;;;;;0.30;0.30;;;;;;;;;;5014201;28;20061;-68
2022/04/19 13:37:05;;;;;;;0.38;0.38;;;;;;;;;;5014506;28;20037;-68
2022/04/19 13:39:31;;;;;;;0.93;0.93;;;;;;;;;;5014250;28;20046;-68
2022/04/19 13:41:57;;;;;;;0.32;0.32;;;;;;;;;;5014365;28;20038;-68
2022/04/19 13:44:23;;;;;;;0.40;0.40;;;;;;;;;;5014409;28;20037;-68
2022/04/19 13:46:52;;;;;;;1.00;0.50;;;;;;;;;;5014720;28;20111;-68
2022/04/19 13:49:18;;;;;;;1.25;0.82;;;;;;;;;;5014625;28;20057;-68
2022/04/19 13:51:45;;;;;;;0.50;0.35;;;;;;;;;;5014130;28;20037;-68
2022/04/19 13:54:12;;;;;;;0.30;0.30;;;;;;;;;;5014057;28;20054;-68
2022/04/19 13:56:42;;;;;;;0.25;0.25;;;;;;;;;;5014840;28;20046;-68
2022/04/19 13:59:09;;;;;;;0.20;0.20;;;;;;;;;;5014356;28;20149;-68
2022/04/19 14:01:36;;;;;;;0.30;0.30;;;;;;;;;;5014634;28;20038;-68
2022/04/19 14:04:02;;;;;;;0.73;0.73;;;;;;;;;;5014738;28;20046;-68
2022/04/19 14:06:30;;;;;;;2.40;1.33;;;;;;;;;;5014034;28;20038;-68
2022/04/19 14:08:56;;;;;;;0.30;0.30;;;;;;;;;;5014209;28;20045;-68
2022/04/19 14:11:23;;;;;;;0.38;0.38;;;;;;;;;;5016506;28;20141;-68
2022/04/19 14:13:49;;;;;;;0.28;0.28;;;;;;;;;;5017501;28;20045;-68
2022/04/19 14:16:15;;;;;;;0.95;0.65;;;;;;;;;;5017644;28;20037;-68
2022/04/19 14:18:42;;;;;;;0.70;0.70;;;;;;;;;;5018394;28;20037;-68
2022/04/19 14:21:08;;;;;;;0.10;0.10;;;;;;;;;;5017562;28;20117;-68
2022/04/19 14:23:34;;;;;;;0.20;0.20;;;;;;;;;;5017507;28;20128;-68
2022/04/19 14:26:01;;;;;;;0.60;0.60;;;;;;;;;;5017301;28;20038;-68
2022/04/19 14:33:15;;;;;;;0.30;0.30;;;;;;;;;;5016431;28;20567;-68
2022/04/19 14:33:59;;;;;;;0.35;0.35;;;;;;;;;;5017556;28;20439;-67
2022/04/19 14:36:25;;;;;;;0.50;0.50;;;;;;;;;;5020017;28;20038;-66
2022/04/19 14:38:52;;;;;;;0.98;0.77;;;;;;;;;;5009721;28;20049;-68
2022/04/19 14:41:21;;;;;;;0.20;0.20;;;;;;;;;;5015106;28;20503;-68
2022/04/19 14:43:48;;;;;;;1.55;1.05;;;;;;;;;;5016242;28;20038;-68
2022/04/19 14:46:14;;;;;;;0.68;0.68;;;;;;;;;;5016210;28;20042;-68
2022/04/19 14:48:41;;;;;;;1.05;1.05;;;;;;;;;;5015750;28;20125;-68
2022/04/19 14:53:52;;;;;;;0.55;0.55;;;;;;;;;;5015604;28;20049;-68
2022/04/19 14:56:18;;;;;;;0.30;0.30;;;;;;;;;;5016554;28;20060;-68
2022/04/19 14:58:44;;;;;;;0.65;0.63;;;;;;;;;;5015296;28;20500;-68
2022/04/19 15:01:12;;;;;;;0.90;0.75;;;;;;;;;;5014753;28;20513;-68
2022/04/19 15:03:38;;;;;;;0.30;0.30;;;;;;;;;;5015081;28;20488;-69
2022/04/19 15:06:05;;;;;;;1.13;0.50;;;;;;;;;;5033145;28;20048;-67
2022/04/19 15:08:31;;;;;;;0.35;0.35;;;;;;;;;;5006257;28;20035;-69
2022/04/19 15:10:57;;;;;;;0.55;0.55;;;;;;;;;;5014506;28;20056;-69
2022/04/19 15:13:24;;;;;;;0.70;0.65;;;;;;;;;;5021705;28;20048;-67
2022/04/19 15:15:50;;;;;;;0.82;0.75;;;;;;;;;;5014527;28;20041;-68
2022/04/19 15:18:16;;;;;;;1.60;1.33;;;;;;;;;;5008474;28;20069;-67
2022/04/19 15:20:42;;;;;;;0.70;0.70;;;;;;;;;;5014762;28;20092;-67
2022/04/19 15:23:08;;;;;;;0.55;0.55;;;;;;;;;;5014211;28;20124;-68
2022/04/19 15:25:35;;;;;;;0.63;0.63;;;;;;;;;;5006883;28;20052;-68
2022/04/19 15:28:03;;;;;;;0.57;0.57;;;;;;;;;;5013825;28;20066;-68
2022/04/19 15:30:31;;;;;;;0.75;0.50;;;;;;;;;;5002925;28;20146;-68
2022/04/19 15:32:57;;;;;;;0.40;0.40;;;;;;;;;;5007984;28;20048;-68
2022/04/19 15:35:23;;;;;;;1.98;1.83;;;;;;;;;;5015263;28;20504;-68
2022/04/19 15:37:50;;;;;;;0.30;0.30;;;;;;;;;;5015609;28;20053;-68
2022/04/19 15:40:17;;;;;;;0.85;0.85;;;;;;;;;;5013964;28;20204;-67
2022/04/19 15:42:43;;;;;;;1.35;0.60;;;;;;;;;;5014426;28;20042;-67
2022/04/19 15:45:09;;;;;;;0.20;0.20;;;;;;;;;;5015287;28;20115;-68
2022/04/19 15:47:36;;;;;;;0.63;0.63;;;;;;;;;;5014994;28;20038;-68